createdAt,value
2022-09-01T00:00:50.982Z,0.60
2022-09-01T00:04:04.271Z,0.60
2022-09-01T00:07:08.446Z,0.53
2022-09-01T00:10:11.688Z,0.40
2022-09-01T00:13:15.501Z,0.50
2022-09-01T00:16:19.849Z,0.50
2022-09-01T00:19:24.019Z,0.52
2022-09-01T00:22:27.401Z,0.70
2022-09-01T00:25:30.712Z,0.60
2022-09-01T00:28:35.686Z,0.55
2022-09-01T00:31:39.312Z,0.60
2022-09-01T00:34:42.581Z,0.70
2022-09-01T00:37:45.997Z,0.50
2022-09-01T00:40:50.085Z,0.50
2022-09-01T00:43:56.363Z,0.43
2022-09-01T00:46:59.923Z,0.50
2022-09-01T00:50:06.273Z,0.50
2022-09-01T00:53:10.693Z,0.60
2022-09-01T00:56:14.653Z,0.40
2022-09-01T00:59:20.682Z,0.43
2022-09-01T01:02:24.992Z,0.70
2022-09-01T01:05:34.542Z,0.47
2022-09-01T01:08:41.864Z,0.53
2022-09-01T01:11:47.480Z,0.70
2022-09-01T01:14:51.061Z,0.50
2022-09-01T01:17:56.172Z,0.60
2022-09-01T01:21:25.249Z,0.60
2022-09-01T01:24:32.641Z,0.60
2022-09-01T01:27:38.122Z,0.67
2022-09-01T01:30:52.602Z,0.65
2022-09-01T01:33:57.945Z,0.60
2022-09-01T01:37:01.722Z,0.50
2022-09-01T01:40:05.791Z,0.60
2022-09-01T01:43:11.539Z,0.60
2022-09-01T01:46:19.198Z,0.63
2022-09-01T01:49:29.140Z,0.60
2022-09-01T01:52:33.416Z,0.55
2022-09-01T01:55:36.605Z,0.73
2022-09-01T01:58:40.717Z,0.70
2022-09-01T02:01:49.372Z,0.50
2022-09-01T02:04:53.552Z,0.47
2022-09-01T02:08:03.966Z,0.50
2022-09-01T02:11:08.928Z,0.50
2022-09-01T02:14:13.601Z,0.90
2022-09-01T02:17:17.636Z,0.50
2022-09-01T02:20:21.986Z,0.57
2022-09-01T02:23:26.149Z,0.50
2022-09-01T02:26:38.607Z,0.80
2022-09-01T02:29:43.525Z,0.57
2022-09-01T02:32:47.197Z,0.50
2022-09-01T02:35:53.212Z,0.50
2022-09-01T02:38:57.051Z,0.57
2022-09-01T02:42:01.982Z,0.63
2022-09-01T02:45:16.204Z,0.60
2022-09-01T02:48:24.548Z,0.68
2022-09-01T02:51:27.841Z,0.63
2022-09-01T02:54:32.927Z,0.80
2022-09-01T02:57:36.624Z,1.10
2022-09-01T03:00:40.741Z,1.20
2022-09-01T03:03:43.855Z,0.80
2022-09-01T03:06:47.128Z,0.93
2022-09-01T03:09:52.591Z,1.10
2022-09-01T03:12:56.167Z,1.30
2022-09-01T03:15:59.414Z,1.00
2022-09-01T03:19:03.806Z,1.40
2022-09-01T03:22:06.957Z,1.10
2022-09-01T03:25:10.408Z,1.10
2022-09-01T03:28:14.955Z,1.37
2022-09-01T03:31:19.999Z,0.90
2022-09-01T03:34:24.621Z,0.70
2022-09-01T03:37:30.331Z,1.00
2022-09-01T03:40:36.571Z,0.80
2022-09-01T03:43:45.995Z,0.90
2022-09-01T03:46:51.835Z,0.83
2022-09-01T03:49:56.230Z,0.80
2022-09-01T03:53:01.339Z,1.02
2022-09-01T03:56:05.484Z,1.02
2022-09-01T03:59:16.765Z,0.90
2022-09-01T04:02:22.197Z,0.80
2022-09-01T04:05:31.392Z,0.90
2022-09-01T04:08:35.066Z,1.10
2022-09-01T04:11:45.706Z,1.20
2022-09-01T04:14:50.568Z,1.30
2022-09-01T04:18:20.362Z,1.40
2022-09-01T04:21:25.108Z,1.30
2022-09-01T04:24:31.044Z,1.25
2022-09-01T04:27:40.864Z,1.55
2022-09-01T04:30:45.338Z,1.57
2022-09-01T04:33:52.978Z,1.00
2022-09-01T04:36:58.911Z,1.40
2022-09-01T04:40:02.340Z,1.77
2022-09-01T04:43:07.881Z,1.40
2022-09-01T04:46:13.136Z,1.47
2022-09-01T04:49:26.434Z,1.97
2022-09-01T04:52:32.024Z,1.80
2022-09-01T04:55:43.605Z,1.90
2022-09-01T04:58:56.769Z,1.42
2022-09-01T05:02:01.253Z,2.07
2022-09-01T05:05:04.775Z,1.90
2022-09-01T05:08:10.172Z,2.10
2022-09-01T05:11:16.963Z,4.05
2022-09-01T05:14:23.110Z,7.03
2022-09-01T05:17:28.599Z,4.40
2022-09-01T05:20:32.326Z,4.93
2022-09-01T05:23:36.607Z,4.93
2022-09-01T05:26:40.864Z,5.25
2022-09-01T05:29:49.739Z,5.80
2022-09-01T05:32:55.023Z,5.80
2022-09-01T05:36:01.251Z,4.03
2022-09-01T05:39:06.552Z,3.97
2022-09-01T05:42:09.828Z,4.32
2022-09-01T05:45:15.247Z,3.63
2022-09-01T05:48:21.794Z,3.83
2022-09-01T05:51:43.922Z,3.70
2022-09-01T05:54:49.487Z,3.97
2022-09-01T05:57:55.105Z,5.72
2022-09-01T06:01:22.095Z,4.13
2022-09-01T06:04:27.163Z,4.50
2022-09-01T06:07:38.101Z,4.80
2022-09-01T06:10:42.748Z,4.97
2022-09-01T06:13:55.266Z,5.40
2022-09-01T06:17:00.984Z,7.03
2022-09-01T06:20:10.699Z,4.87
2022-09-01T06:23:17.931Z,6.30
2022-09-01T06:26:30.685Z,5.90
2022-09-01T06:29:40.905Z,5.70
2022-09-01T06:32:44.617Z,5.80
2022-09-01T06:35:47.946Z,5.47
2022-09-01T06:38:55.197Z,5.03
2022-09-01T06:41:59.077Z,5.10
2022-09-01T06:45:10.490Z,5.38
2022-09-01T06:48:16.051Z,6.55
2022-09-01T06:51:22.283Z,5.70
2022-09-01T06:54:35.529Z,5.63
2022-09-01T07:01:15.471Z,6.57
2022-09-01T07:04:20.566Z,5.90
2022-09-01T07:14:25.177Z,7.03
2022-09-01T07:17:33.085Z,7.38
2022-09-01T07:21:02.852Z,6.53
2022-09-01T07:24:08.633Z,6.93
2022-09-01T07:27:14.787Z,6.13
2022-09-01T07:30:24.285Z,6.95
2022-09-01T07:33:49.084Z,7.05
2022-09-01T07:38:03.350Z,6.55
2022-09-01T07:44:14.028Z,6.07
2022-09-01T07:47:51.759Z,5.97
2022-09-01T07:54:13.804Z,6.50
2022-09-01T07:57:17.019Z,6.33
2022-09-01T08:00:22.096Z,7.13
2022-09-01T08:03:31.292Z,6.88
2022-09-01T08:06:39.311Z,7.53
2022-09-01T08:09:44.852Z,8.23
2022-09-01T08:12:57.209Z,6.97
2022-09-01T08:16:08.331Z,8.67
2022-09-01T08:19:19.128Z,9.65
2022-09-01T08:22:42.441Z,9.63
2022-09-01T08:25:55.174Z,10.27
2022-09-01T08:28:58.495Z,11.07
2022-09-01T08:32:07.971Z,9.60
2022-09-01T08:35:12.326Z,9.85
2022-09-01T08:38:15.816Z,10.88
2022-09-01T08:41:28.477Z,11.77
2022-09-01T08:44:32.161Z,13.43
2022-09-01T08:47:50.689Z,10.53
2022-09-01T08:51:28.641Z,9.45
2022-09-01T08:54:36.326Z,11.27
2022-09-01T08:57:42.017Z,10.68
2022-09-01T09:00:59.986Z,9.10
2022-09-01T09:04:08.890Z,11.13
2022-09-01T09:07:23.451Z,11.98
2022-09-01T09:10:32.027Z,10.90
2022-09-01T09:13:40.833Z,11.27
2022-09-01T09:16:46.972Z,11.73
2022-09-01T09:19:54.618Z,9.77
2022-09-01T09:22:59.737Z,12.77
2022-09-01T09:26:03.508Z,13.13
2022-09-01T09:29:06.612Z,13.63
2022-09-01T09:35:36.345Z,12.17
2022-09-01T09:38:40.116Z,11.00
2022-09-01T09:41:43.626Z,13.27
2022-09-01T09:44:51.193Z,12.43
2022-09-01T09:47:54.925Z,11.83
2022-09-01T09:51:15.754Z,11.93
2022-09-01T09:54:27.012Z,10.80
2022-09-01T09:57:31.119Z,11.07
2022-09-01T10:00:35.039Z,10.85
2022-09-01T10:03:42.549Z,9.80
2022-09-01T10:06:46.978Z,9.13
2022-09-01T10:09:51.626Z,8.93
2022-09-01T10:12:56.723Z,7.20
2022-09-01T10:16:03.716Z,7.57
2022-09-01T10:19:16.346Z,6.30
2022-09-01T10:22:20.905Z,7.10
2022-09-01T10:25:33.139Z,6.20
2022-09-01T10:28:48.867Z,6.30
2022-09-01T10:32:28.105Z,6.65
2022-09-01T10:35:31.909Z,6.87
2022-09-01T10:38:35.205Z,5.80
2022-09-01T10:41:59.546Z,5.97
2022-09-01T10:45:05.224Z,5.80
2022-09-01T10:48:32.562Z,5.30
2022-09-01T10:51:51.549Z,4.53
2022-09-01T10:55:00.249Z,3.80
2022-09-01T11:01:52.911Z,4.18
2022-09-01T11:05:00.211Z,3.70
2022-09-01T11:08:41.414Z,3.80
2022-09-01T11:12:03.133Z,4.00
2022-09-01T11:15:29.280Z,3.72
2022-09-01T11:18:33.197Z,3.70
2022-09-01T11:21:39.186Z,3.97
2022-09-01T11:24:42.490Z,3.30
2022-09-01T11:27:49.904Z,2.50
2022-09-01T11:31:11.017Z,2.47
2022-09-01T11:34:23.393Z,2.20
2022-09-01T11:37:27.910Z,2.28
2022-09-01T11:40:35.086Z,2.40
2022-09-01T11:43:38.525Z,2.30
2022-09-01T11:46:43.718Z,2.80
2022-09-01T11:50:02.441Z,3.22
2022-09-01T11:53:13.322Z,2.72
2022-09-01T11:56:25.513Z,2.10
2022-09-01T11:59:35.020Z,2.20
2022-09-01T12:02:46.254Z,2.50
2022-09-01T12:05:59.502Z,2.55
2022-09-01T12:09:05.237Z,2.05
2022-09-01T12:12:27.036Z,1.80
2022-09-01T12:15:30.796Z,1.80
2022-09-01T12:18:45.319Z,1.55
2022-09-01T12:22:17.708Z,1.88
2022-09-01T12:25:30.690Z,2.40
2022-09-01T12:28:35.309Z,2.20
2022-09-01T12:31:40.535Z,1.37
2022-09-01T12:34:47.894Z,1.67
2022-09-01T12:37:52.819Z,1.55
2022-09-01T12:40:59.023Z,1.30
2022-09-01T12:44:26.763Z,1.50
2022-09-01T12:47:36.165Z,1.53
2022-09-01T12:50:44.568Z,1.90
2022-09-01T12:54:00.623Z,2.30
2022-09-01T12:57:07.709Z,1.50
2022-09-01T13:00:21.992Z,1.50
2022-09-01T13:03:27.574Z,1.40
2022-09-01T13:06:30.771Z,1.30
2022-09-01T13:09:35.214Z,1.40
2022-09-01T13:12:42.735Z,1.50
2022-09-01T13:15:50.351Z,1.53
2022-09-01T13:22:17.683Z,1.25
2022-09-01T13:25:21.809Z,1.90
2022-09-01T13:31:35.654Z,1.30
2022-09-01T13:34:40.929Z,1.43
2022-09-01T13:37:44.149Z,1.48
2022-09-01T13:40:50.035Z,1.20
2022-09-01T13:43:53.478Z,1.10
2022-09-01T13:47:00.610Z,1.60
2022-09-01T13:50:07.800Z,1.30
2022-09-01T13:53:12.793Z,1.65
2022-09-01T13:56:15.921Z,1.20
2022-09-01T13:59:22.249Z,1.50
2022-09-01T14:02:26.373Z,1.40
2022-09-01T14:05:33.401Z,2.50
2022-09-01T14:08:36.864Z,1.67
2022-09-01T14:11:40.349Z,1.50
2022-09-01T14:18:09.190Z,1.73
2022-09-01T14:21:14.836Z,1.50
2022-09-01T14:24:20.063Z,1.40
2022-09-01T14:27:23.355Z,1.70
2022-09-01T14:30:31.397Z,1.77
2022-09-01T14:33:35.500Z,1.67
2022-09-01T14:36:39.247Z,2.10
2022-09-01T14:39:42.498Z,1.52
2022-09-01T14:42:49.570Z,1.70
2022-09-01T14:46:10.181Z,1.50
2022-09-01T14:49:18.924Z,2.03
2022-09-01T14:52:25.004Z,1.60
2022-09-01T14:55:30.316Z,1.70
2022-09-01T14:58:33.756Z,2.08
2022-09-01T15:01:36.963Z,1.70
2022-09-01T15:04:40.234Z,1.57
2022-09-01T15:07:43.894Z,1.90
2022-09-01T15:10:47.360Z,2.70
2022-09-01T15:13:52.163Z,1.90
2022-09-01T15:16:55.395Z,1.83
2022-09-01T15:20:18.652Z,1.57
2022-09-01T15:23:25.161Z,1.97
2022-09-01T15:26:28.485Z,2.00
2022-09-01T15:29:34.048Z,2.63
2022-09-01T15:32:37.409Z,2.00
2022-09-01T15:35:40.684Z,2.10
2022-09-01T15:38:43.989Z,2.10
2022-09-01T15:41:47.323Z,1.70
2022-09-01T15:44:50.634Z,2.13
2022-09-01T15:47:54.148Z,2.22
2022-09-01T15:51:22.210Z,2.10
2022-09-01T15:54:30.344Z,2.23
2022-09-01T15:57:34.315Z,1.83
2022-09-01T16:00:37.654Z,2.03
2022-09-01T16:03:42.293Z,2.08
2022-09-01T16:06:45.791Z,1.93
2022-09-01T16:09:49.072Z,2.00
2022-09-01T16:12:52.617Z,1.90
2022-09-01T16:16:32.054Z,1.98
2022-09-01T16:20:04.280Z,2.53
2022-09-01T16:23:23.048Z,2.20
2022-09-01T16:26:26.325Z,1.93
2022-09-01T16:29:45.346Z,1.92
2022-09-01T16:32:49.431Z,1.73
2022-09-01T16:36:17.560Z,2.22
2022-09-01T16:39:42.349Z,1.70
2022-09-01T16:42:57.815Z,2.90
2022-09-01T16:46:27.033Z,2.65
2022-09-01T16:49:58.044Z,2.65
2022-09-01T16:53:16.943Z,2.10
2022-09-01T16:56:32.559Z,2.10
2022-09-01T16:59:38.705Z,2.60
2022-09-01T17:02:55.357Z,2.55
2022-09-01T17:06:13.872Z,2.10
2022-09-01T17:10:01.993Z,3.25
2022-09-01T17:13:17.035Z,2.40
2022-09-01T17:16:39.520Z,2.17
2022-09-01T17:19:43.121Z,3.13
2022-09-01T17:22:51.998Z,2.70
2022-09-01T17:26:01.626Z,2.35
2022-09-01T17:29:29.120Z,2.33
2022-09-01T17:32:59.268Z,1.83
2022-09-01T17:36:14.110Z,1.63
2022-09-01T17:39:25.992Z,1.50
2022-09-01T17:43:05.059Z,2.10
2022-09-01T17:46:45.325Z,1.60
2022-09-01T17:50:02.786Z,1.70
2022-09-01T17:53:23.070Z,1.92
2022-09-01T17:56:52.481Z,2.00
2022-09-01T18:00:16.348Z,2.35
2022-09-01T18:03:22.661Z,1.83
2022-09-01T18:06:41.863Z,2.23
2022-09-01T18:09:51.277Z,2.42
2022-09-01T18:13:03.940Z,2.10
2022-09-01T18:16:14.904Z,1.67
2022-09-01T18:19:23.124Z,2.60
2022-09-01T18:22:32.150Z,2.40
2022-09-01T18:25:48.814Z,3.88
2022-09-01T18:28:54.162Z,1.98
2022-09-01T18:32:22.903Z,1.67
2022-09-01T18:35:41.169Z,1.77
2022-09-01T18:38:54.795Z,2.77
2022-09-01T18:41:57.949Z,2.55
2022-09-01T18:45:15.037Z,1.75
2022-09-01T18:48:21.228Z,1.90
2022-09-01T18:51:45.601Z,1.83
2022-09-01T18:55:01.433Z,2.10
2022-09-01T18:58:21.284Z,2.30
2022-09-01T19:01:38.924Z,1.70
2022-09-01T19:04:45.935Z,1.77
2022-09-01T19:08:03.208Z,1.90
2022-09-01T19:11:34.673Z,1.97
2022-09-01T19:14:56.646Z,1.70
2022-09-01T19:18:12.836Z,1.88
2022-09-01T19:21:20.345Z,2.13
2022-09-01T19:24:46.721Z,2.20
2022-09-01T19:28:07.060Z,1.80
2022-09-01T19:31:25.187Z,2.40
2022-09-01T19:34:41.037Z,2.10
2022-09-01T19:37:47.927Z,1.63
2022-09-01T19:41:00.776Z,1.77
2022-09-01T19:44:14.527Z,1.50
2022-09-01T19:47:39.391Z,1.70
2022-09-01T19:51:00.694Z,1.75
2022-09-01T19:54:13.347Z,1.98
2022-09-01T19:57:30.146Z,2.30
2022-09-01T20:00:53.433Z,1.60
2022-09-01T20:04:06.552Z,1.60
2022-09-01T20:07:28.935Z,1.92
2022-09-01T20:10:55.238Z,1.80
2022-09-01T20:14:17.651Z,2.30
2022-09-01T20:17:37.231Z,1.70
2022-09-01T20:20:47.095Z,1.70
2022-09-01T20:23:59.553Z,1.60
2022-09-01T20:27:21.012Z,1.80
2022-09-01T20:30:27.764Z,1.53
2022-09-01T20:33:47.146Z,1.73
2022-09-01T20:36:54.727Z,1.65
2022-09-01T20:40:13.532Z,1.50
2022-09-01T20:43:27.560Z,1.50
2022-09-01T20:46:30.937Z,2.03
2022-09-01T20:49:37.213Z,1.57
2022-09-01T20:53:01.925Z,1.50
2022-09-01T20:56:42.432Z,1.35
2022-09-01T20:59:55.664Z,1.23
2022-09-01T21:03:34.557Z,1.23
2022-09-01T21:07:04.837Z,1.20
2022-09-01T21:10:31.019Z,1.05
2022-09-01T21:13:55.459Z,1.10
2022-09-01T21:17:19.646Z,0.98
2022-09-01T21:20:56.788Z,1.10
2022-09-01T21:23:59.945Z,1.20
2022-09-01T21:27:11.544Z,1.00
2022-09-01T21:30:16.026Z,0.80
2022-09-01T21:33:19.417Z,1.08
2022-09-01T21:36:22.620Z,1.50
2022-09-01T21:39:25.862Z,0.90
2022-09-01T21:42:51.482Z,1.00
2022-09-01T21:45:55.011Z,1.10
2022-09-01T21:48:58.253Z,1.10
2022-09-01T21:52:01.617Z,1.20
2022-09-01T21:55:06.469Z,1.00
2022-09-01T21:58:10.088Z,0.80
2022-09-01T22:01:14.264Z,0.80
2022-09-01T22:04:23.112Z,0.80
2022-09-01T22:07:26.386Z,0.90
2022-09-01T22:10:31.769Z,0.97
2022-09-01T22:13:34.925Z,0.90
2022-09-01T22:16:39.063Z,1.30
2022-09-01T22:19:42.292Z,1.17
2022-09-01T22:22:48.786Z,0.83
2022-09-01T22:25:52.001Z,1.00
2022-09-01T22:28:57.235Z,0.93
2022-09-01T22:32:00.537Z,0.80
2022-09-01T22:35:06.940Z,0.90
2022-09-01T22:38:11.961Z,0.97
2022-09-01T22:41:19.821Z,0.83
2022-09-01T22:44:23.341Z,1.00
2022-09-01T22:47:26.502Z,0.75
2022-09-01T22:50:29.718Z,0.88
2022-09-01T22:53:32.900Z,0.60
2022-09-01T22:56:37.822Z,0.73
2022-09-01T22:59:44.503Z,0.80
2022-09-01T23:02:47.749Z,0.73
2022-09-01T23:06:02.174Z,0.75
2022-09-01T23:09:05.877Z,0.70
2022-09-01T23:12:09.048Z,0.67
2022-09-01T23:15:12.212Z,0.70
2022-09-01T23:18:15.443Z,0.80
2022-09-01T23:21:21.428Z,0.82
2022-09-01T23:24:24.979Z,0.60
2022-09-01T23:27:28.337Z,0.50
2022-09-01T23:30:31.490Z,0.60
2022-09-01T23:33:34.623Z,1.00
2022-09-01T23:36:38.048Z,0.80
2022-09-01T23:39:41.291Z,0.90
2022-09-01T23:42:45.440Z,0.67
2022-09-01T23:45:51.508Z,0.50
2022-09-01T23:48:55.148Z,0.50
2022-09-01T23:51:58.625Z,0.50
2022-09-01T23:55:01.770Z,0.70
2022-09-01T23:58:05.013Z,0.60
